Time;durP1;ratioP1;P1;durP2;ratioP2;P2;SDS_P1;SDS_P2;PMS_P1;PMS_P2;Temp;Humidity;BMP_temperature;BMP_pressure;BME280_temperature;BME280_humidity;BME280_pressure;Samples;Min_cycle;Max_cycle;Signal;HPM_P1;HPM_P2
2023/12/25 00:01:06;;;;;;;3.40;1.60;;;;;;;8.39;100.00;98237.88;4142303;28;20261;-50
2023/12/25 00:03:08;;;;;;;0.80;0.80;;;;;;;8.41;100.00;98230.31;4135180;28;20203;-50
2023/12/25 00:05:10;;;;;;;0.95;0.95;;;;;;;8.38;100.00;98233.50;4139636;28;20300;-51
2023/12/25 00:07:12;;;;;;;1.02;0.88;;;;;;;8.38;100.00;98238.97;4133852;28;20224;-50
2023/12/25 00:09:14;;;;;;;1.15;1.15;;;;;;;8.41;100.00;98247.47;4140091;28;20232;-53
2023/12/25 00:11:15;;;;;;;1.17;0.98;;;;;;;8.44;100.00;98246.16;4136434;28;22352;-50
2023/12/25 00:13:17;;;;;;;0.90;0.90;;;;;;;8.43;100.00;98239.06;4138189;28;20260;-51
2023/12/25 00:15:19;;;;;;;3.63;1.75;;;;;;;8.42;100.00;98242.88;4127248;28;20214;-52
2023/12/25 00:17:21;;;;;;;1.98;1.73;;;;;;;8.38;100.00;98230.78;4122144;28;20668;-52
2023/12/25 00:19:23;;;;;;;1.90;1.50;;;;;;;8.36;100.00;98213.84;4137622;28;20238;-51
2023/12/25 00:21:26;;;;;;;3.38;2.03;;;;;;;8.33;100.00;98214.31;4138934;28;20225;-53
2023/12/25 00:23:28;;;;;;;5.38;1.48;;;;;;;8.34;100.00;98213.28;4135840;28;20202;-50
2023/12/25 00:25:30;;;;;;;2.15;1.67;;;;;;;8.32;100.00;98215.38;4136085;28;20211;-50
2023/12/25 00:27:31;;;;;;;0.80;0.80;;;;;;;8.31;100.00;98208.28;4136395;28;20246;-50
2023/12/25 00:29:33;;;;;;;1.40;1.30;;;;;;;8.29;100.00;98205.78;4133730;28;20240;-51
2023/12/25 00:31:35;;;;;;;1.52;1.40;;;;;;;8.31;100.00;98211.00;4137718;28;20799;-49
2023/12/25 00:33:36;;;;;;;5.07;1.77;;;;;;;8.34;100.00;98210.53;4136214;28;20753;-51
2023/12/25 00:35:38;;;;;;;1.40;1.33;;;;;;;8.32;100.00;98220.84;4135247;28;20268;-51
2023/12/25 00:37:40;;;;;;;1.20;1.20;;;;;;;8.31;100.00;98214.59;4127237;28;20213;-52
2023/12/25 00:39:42;;;;;;;1.40;1.30;;;;;;;8.29;100.00;98205.00;4135959;28;20214;-49
2023/12/25 00:41:44;;;;;;;2.63;1.08;;;;;;;8.30;100.00;98212.91;4143359;28;21057;-52
2023/12/25 00:43:45;;;;;;;2.75;2.15;;;;;;;8.33;100.00;98200.69;4132713;28;20210;-50
2023/12/25 00:45:47;;;;;;;3.05;1.75;;;;;;;8.35;100.00;98204.03;4133470;28;20206;-54
2023/12/25 00:47:49;;;;;;;2.47;1.17;;;;;;;8.37;100.00;98204.59;4134471;28;20209;-51
2023/12/25 00:49:51;;;;;;;1.00;1.00;;;;;;;8.36;100.00;98194.75;4126847;28;20218;-51
2023/12/25 00:51:53;;;;;;;1.40;1.27;;;;;;;8.38;100.00;98203.53;4138291;28;20211;-50
2023/12/25 00:53:55;;;;;;;1.98;1.30;;;;;;;8.35;100.00;98204.03;4135786;28;20705;-51
2023/12/25 00:55:57;;;;;;;1.15;1.13;;;;;;;8.38;100.00;98200.78;4138079;28;20209;-50
2023/12/25 00:57:59;;;;;;;1.50;1.40;;;;;;;8.38;100.00;98203.53;4136482;28;20233;-50
2023/12/25 01:00:02;;;;;;;1.75;1.25;;;;;;;8.41;100.00;98205.78;4134438;28;20264;-52
2023/12/25 01:02:04;;;;;;;4.78;1.23;;;;;;;8.42;100.00;98199.25;4135194;28;20236;-52
2023/12/25 01:04:06;;;;;;;1.20;1.20;;;;;;;8.37;100.00;98196.41;4149046;28;20613;-50
2023/12/25 01:06:07;;;;;;;6.90;2.05;;;;;;;8.40;100.00;98206.81;4137098;28;20251;-50
2023/12/25 01:08:10;;;;;;;4.43;1.00;;;;;;;8.40;100.00;98209.53;4133887;28;20256;-51
2023/12/25 01:10:11;;;;;;;2.20;2.00;;;;;;;8.35;100.00;98202.09;4126914;28;20212;-52
2023/12/25 01:12:13;;;;;;;0.98;0.95;;;;;;;8.34;100.00;98207.81;4143089;28;20248;-50
2023/12/25 01:14:15;;;;;;;0.88;0.88;;;;;;;8.31;100.00;98192.78;4135767;28;20201;-53
2023/12/25 01:16:17;;;;;;;1.98;1.38;;;;;;;8.32;100.00;98185.41;4137036;28;20213;-52
2023/12/25 01:18:18;;;;;;;5.30;1.25;;;;;;;8.32;100.00;98188.97;4138393;28;20225;-52
2023/12/25 01:20:20;;;;;;;1.40;1.30;;;;;;;8.38;100.00;98192.63;4134068;28;20271;-54
2023/12/25 01:22:22;;;;;;;9.70;1.00;;;;;;;8.33;100.00;98211.59;4137469;28;20232;-50
2023/12/25 01:24:24;;;;;;;0.80;0.80;;;;;;;8.33;100.00;98217.03;4142054;28;20678;-51
2023/12/25 01:26:26;;;;;;;2.35;1.60;;;;;;;8.38;100.00;98208.97;4151281;28;20216;-50
2023/12/25 01:28:28;;;;;;;22.02;1.67;;;;;;;8.37;100.00;98208.16;4135398;28;20230;-51
2023/12/25 01:30:29;;;;;;;0.80;0.80;;;;;;;8.34;100.00;98207.81;4135357;28;20218;-51
2023/12/25 01:32:31;;;;;;;2.08;1.42;;;;;;;8.37;100.00;98229.13;4144651;28;20209;-50
2023/12/25 01:34:33;;;;;;;1.70;1.27;;;;;;;8.36;100.00;98227.47;4137214;28;20777;-51
2023/12/25 01:36:35;;;;;;;1.90;1.77;;;;;;;8.34;100.00;98218.72;4137351;28;20218;-50
2023/12/25 01:38:37;;;;;;;0.75;0.75;;;;;;;8.37;100.00;98218.22;4135427;28;20233;-50
2023/12/25 01:40:43;;;;;;;1.10;1.10;;;;;;;8.40;100.00;98231.34;4135551;28;20678;-51
2023/12/25 01:42:45;;;;;;;1.15;1.15;;;;;;;8.36;100.00;98222.03;4137286;28;20241;-50
2023/12/25 01:44:47;;;;;;;1.38;1.27;;;;;;;8.36;100.00;98227.47;4139943;28;20209;-50
2023/12/25 01:46:49;;;;;;;0.90;0.82;;;;;;;8.37;100.00;98212.78;4137593;28;20209;-51
2023/12/25 01:48:51;;;;;;;1.20;1.20;;;;;;;8.34;100.00;98221.44;4139000;28;20566;-51
2023/12/25 01:50:56;;;;;;;1.25;0.90;;;;;;;8.35;100.00;98239.47;4139264;28;20970;-50
2023/12/25 01:52:58;;;;;;;1.13;1.13;;;;;;;8.36;100.00;98244.66;4134832;28;20210;-49
2023/12/25 01:55:01;;;;;;;3.13;0.95;;;;;;;8.34;100.00;98235.09;4137267;28;20206;-50
2023/12/25 01:57:04;;;;;;;1.00;1.00;;;;;;;8.32;100.00;98237.19;4138622;28;20350;-50
2023/12/25 01:59:06;;;;;;;3.85;1.58;;;;;;;8.29;100.00;98233.06;4135451;28;20233;-53
2023/12/25 02:01:08;;;;;;;0.63;0.63;;;;;;;8.30;100.00;98228.44;4121737;28;20222;-54
2023/12/25 02:03:10;;;;;;;1.40;1.30;;;;;;;8.29;100.00;98226.78;4118856;28;20210;-55
2023/12/25 02:05:12;;;;;;;0.77;0.77;;;;;;;8.26;100.00;98227.25;4142591;28;20217;-51
2023/12/25 02:07:15;;;;;;;1.02;1.02;;;;;;;8.28;100.00;98219.69;4134225;28;20206;-50
2023/12/25 02:09:17;;;;;;;1.27;0.88;;;;;;;8.29;100.00;98226.78;4137119;28;20288;-50
2023/12/25 02:11:19;;;;;;;1.05;1.05;;;;;;;8.31;100.00;98241.00;4136315;28;20205;-62
2023/12/25 02:13:21;;;;;;;2.03;0.88;;;;;;;8.29;100.00;98232.25;4137922;28;20288;-50
2023/12/25 02:15:22;;;;;;;1.00;1.00;;;;;;;8.32;100.00;98231.75;4137059;28;20214;-50
2023/12/25 02:17:25;;;;;;;0.90;0.90;;;;;;;8.30;100.00;98223.00;4141590;28;20217;-50
2023/12/25 02:19:30;;;;;;;0.70;0.70;;;;;;;8.31;100.00;98219.19;4117604;28;20232;-51
2023/12/25 02:21:32;;;;;;;0.90;0.80;;;;;;;8.30;100.00;98217.53;4139781;28;20220;-49
2023/12/25 02:23:36;;;;;;;0.77;0.77;;;;;;;8.29;100.00;98232.25;4123850;28;20938;-51
2023/12/25 02:25:58;;;;;;;2.80;0.70;;;;;;;8.29;100.00;98218.63;4124451;28;20222;-53
2023/12/25 02:28:03;;;;;;;1.00;1.00;;;;;;;8.27;100.00;98228.91;4139871;28;20320;-51
2023/12/25 02:30:06;;;;;;;0.52;0.52;;;;;;;8.25;100.00;98214.72;4145327;28;20201;-50
2023/12/25 02:32:08;;;;;;;0.90;0.90;;;;;;;8.30;100.00;98217.53;4129803;28;20205;-51
2023/12/25 02:34:10;;;;;;;0.70;0.70;;;;;;;8.29;100.00;98226.78;4145323;28;20217;-51
2023/12/25 02:36:13;;;;;;;0.80;0.80;;;;;;;8.30;100.00;98231.16;4129568;28;20248;-50
2023/12/25 02:38:15;;;;;;;0.57;0.57;;;;;;;8.34;100.00;98232.34;4138667;28;20230;-51
2023/12/25 02:40:17;;;;;;;0.80;0.80;;;;;;;8.34;100.00;98235.88;4120051;28;20641;-50
2023/12/25 02:42:19;;;;;;;0.80;0.80;;;;;;;8.30;100.00;98236.63;4139960;28;20229;-50
2023/12/25 02:44:20;;;;;;;0.70;0.70;;;;;;;8.32;100.00;98231.75;4140120;28;20226;-51
2023/12/25 02:46:23;;;;;;;0.80;0.80;;;;;;;8.32;100.00;98235.31;4136824;28;20217;-51
2023/12/25 02:48:25;;;;;;;9.27;1.00;;;;;;;8.31;100.00;98235.56;4139298;28;20230;-50
2023/12/25 02:50:27;;;;;;;0.70;0.70;;;;;;;8.28;100.00;98236.84;4143416;28;20697;-50
2023/12/25 02:52:29;;;;;;;1.23;1.17;;;;;;;8.31;100.00;98232.81;4138021;28;20241;-50
2023/12/25 02:54:30;;;;;;;0.70;0.70;;;;;;;8.30;100.00;98236.63;4146349;28;20209;-52
2023/12/25 02:56:32;;;;;;;0.70;0.70;;;;;;;8.32;100.00;98229.03;4126971;28;20214;-51
2023/12/25 02:58:34;;;;;;;0.90;0.90;;;;;;;8.23;100.00;98228.56;4137181;28;20307;-51
2023/12/25 03:00:36;;;;;;;0.98;0.98;;;;;;;8.24;100.00;98223.97;4139915;28;20212;-53
2023/12/25 03:02:37;;;;;;;0.80;0.80;;;;;;;8.25;100.00;98241.97;4139233;28;20234;-52
2023/12/25 03:04:39;;;;;;;0.60;0.60;;;;;;;8.20;100.00;98230.94;4138354;28;20216;-51
2023/12/25 03:06:41;;;;;;;1.48;1.10;;;;;;;8.22;100.00;98220.66;4140644;28;20652;-53
2023/12/25 03:08:43;;;;;;;0.60;0.60;;;;;;;8.19;100.00;98226.53;4137020;28;20667;-51
2023/12/25 03:10:45;;;;;;;1.17;1.00;;;;;;;8.23;100.00;98222.31;4143573;28;20213;-51
2023/12/25 03:12:46;;;;;;;0.70;0.70;;;;;;;8.22;100.00;98226.13;4136661;28;20644;-53
2023/12/25 03:14:48;;;;;;;0.90;0.90;;;;;;;8.21;100.00;98205.38;4142023;28;20256;-52
2023/12/25 03:16:50;;;;;;;1.23;1.23;;;;;;;8.19;100.00;98219.25;4139630;28;20238;-50
2023/12/25 03:18:51;;;;;;;0.82;0.82;;;;;;;8.13;100.00;98222.91;4138092;28;20257;-51
2023/12/25 03:20:54;;;;;;;0.80;0.80;;;;;;;8.16;100.00;98227.03;4139637;28;20750;-50
2023/12/25 03:22:56;;;;;;;0.85;0.85;;;;;;;8.15;100.00;98218.03;4139831;28;20335;-50
2023/12/25 03:25:01;;;;;;;1.35;1.25;;;;;;;8.11;100.00;98219.59;4142955;28;20547;-51
2023/12/25 03:27:03;;;;;;;0.60;0.60;;;;;;;8.12;100.00;98223.13;4143367;28;20219;-50
2023/12/25 03:29:04;;;;;;;0.70;0.70;;;;;;;8.14;100.00;98218.25;4134928;28;20233;-50
2023/12/25 03:31:07;;;;;;;0.68;0.68;;;;;;;8.09;100.00;98215.47;4137015;28;20213;-50
2023/12/25 03:33:09;;;;;;;0.73;0.73;;;;;;;8.11;100.00;98202.41;4137224;28;20198;-51
2023/12/25 03:35:11;;;;;;;0.77;0.77;;;;;;;8.10;100.00;98206.22;4138960;28;20313;-53
2023/12/25 03:37:14;;;;;;;0.80;0.80;;;;;;;8.12;100.00;98209.50;4127458;28;20611;-50
2023/12/25 03:39:15;;;;;;;0.90;0.90;;;;;;;8.11;100.00;98213.31;4137850;28;20236;-51
2023/12/25 03:41:17;;;;;;;0.80;0.80;;;;;;;8.10;100.00;98219.84;4137559;28;20209;-51
2023/12/25 03:43:19;;;;;;;0.80;0.80;;;;;;;8.13;100.00;98227.50;4138672;28;20658;-52
2023/12/25 03:45:21;;;;;;;0.80;0.80;;;;;;;8.08;100.00;98228.25;4136453;28;20260;-51
2023/12/25 03:47:23;;;;;;;0.70;0.70;;;;;;;8.12;100.00;98220.41;4139571;28;20223;-51
2023/12/25 03:49:25;;;;;;;0.70;0.70;;;;;;;8.10;100.00;98223.38;4127857;28;20222;-51
2023/12/25 03:51:27;;;;;;;0.60;0.60;;;;;;;8.14;100.00;98224.56;4127765;28;20217;-51
2023/12/25 03:53:29;;;;;;;0.73;0.73;;;;;;;8.10;100.00;98234.25;4140098;28;20209;-52
2023/12/25 03:55:31;;;;;;;0.70;0.70;;;;;;;8.14;100.00;98234.59;4144539;28;20220;-51
2023/12/25 03:57:33;;;;;;;0.75;0.75;;;;;;;8.12;100.00;98242.22;4137492;28;20260;-53
2023/12/25 03:59:35;;;;;;;0.70;0.70;;;;;;;8.15;100.00;98230.84;4139344;28;20241;-52
2023/12/25 04:01:40;;;;;;;1.00;1.00;;;;;;;8.11;100.00;98237.84;4137176;28;20218;-56
2023/12/25 04:03:41;;;;;;;3.08;0.75;;;;;;;8.09;100.00;98232.63;4135701;28;20217;-52
2023/12/25 04:05:43;;;;;;;0.77;0.77;;;;;;;8.07;100.00;98244.81;4143435;28;20296;-52
2023/12/25 04:07:45;;;;;;;0.50;0.50;;;;;;;8.07;100.00;98239.38;4138885;28;20832;-54
2023/12/25 04:09:47;;;;;;;0.82;0.82;;;;;;;8.11;100.00;98243.28;4143463;28;20241;-52
2023/12/25 04:11:49;;;;;;;0.88;0.88;;;;;;;8.11;100.00;98243.28;4137751;28;20306;-53
2023/12/25 04:13:53;;;;;;;0.57;0.57;;;;;;;8.03;100.00;98243.66;4142678;28;20232;-51
2023/12/25 04:15:55;;;;;;;0.60;0.60;;;;;;;8.01;100.00;98243.09;4144426;28;20213;-50
2023/12/25 04:17:56;;;;;;;0.70;0.70;;;;;;;8.07;100.00;98228.47;4140682;28;20590;-52
2023/12/25 04:19:59;;;;;;;0.70;0.70;;;;;;;8.03;100.00;98233.56;4154859;28;20259;-50
2023/12/25 04:22:01;;;;;;;0.55;0.55;;;;;;;8.08;100.00;98230.97;4137800;28;20237;-50
2023/12/25 04:24:03;;;;;;;0.80;0.80;;;;;;;8.06;100.00;98229.53;4139591;28;20201;-53
2023/12/25 04:26:05;;;;;;;0.77;0.77;;;;;;;8.03;100.00;98227.31;4122982;28;20262;-51
2023/12/25 04:28:07;;;;;;;0.63;0.63;;;;;;;8.00;100.00;98217.72;4136471;28;20241;-52
2023/12/25 04:30:09;;;;;;;0.70;0.70;;;;;;;8.01;100.00;98218.56;4134414;28;20228;-51
2023/12/25 04:32:11;;;;;;;0.65;0.65;;;;;;;8.03;100.00;98216.41;4123819;28;20231;-51
2023/12/25 04:34:12;;;;;;;0.60;0.60;;;;;;;8.06;100.00;98207.75;4138577;28;20205;-51
2023/12/25 04:36:14;;;;;;;0.65;0.65;;;;;;;8.05;100.00;98208.81;4122143;28;20588;-51
2023/12/25 04:38:16;;;;;;;0.75;0.75;;;;;;;8.02;100.00;98209.31;4138982;28;20253;-52
2023/12/25 04:40:18;;;;;;;0.68;0.68;;;;;;;8.04;100.00;98209.91;4137093;28;20252;-53
2023/12/25 04:42:20;;;;;;;0.70;0.70;;;;;;;8.02;100.00;98195.69;4124913;28;20639;-51
2023/12/25 04:44:22;;;;;;;0.50;0.50;;;;;;;8.02;100.00;98199.22;4136598;28;20213;-51
2023/12/25 04:46:24;;;;;;;0.60;0.60;;;;;;;8.00;100.00;98206.81;4128723;28;20210;-51
2023/12/25 04:48:25;;;;;;;0.60;0.60;;;;;;;8.01;100.00;98191.31;4136034;28;20292;-53
2023/12/25 04:50:27;;;;;;;0.70;0.70;;;;;;;8.02;100.00;98187.53;4135381;28;20229;-51
2023/12/25 04:52:29;;;;;;;0.70;0.70;;;;;;;8.00;100.00;98185.03;4136862;28;20259;-53
2023/12/25 04:54:31;;;;;;;0.70;0.70;;;;;;;8.01;100.00;98188.59;4138142;28;20273;-52
2023/12/25 04:56:33;;;;;;;0.60;0.60;;;;;;;8.03;100.00;98203.59;4127048;28;20213;-51
2023/12/25 04:58:35;;;;;;;0.57;0.57;;;;;;;8.01;100.00;98207.66;4141712;28;20316;-50
2023/12/25 05:00:36;;;;;;;0.63;0.60;;;;;;;8.01;100.00;98204.94;4120216;28;20249;-50
2023/12/25 05:02:39;;;;;;;0.63;0.63;;;;;;;8.01;100.00;98207.66;4132292;28;20244;-51
2023/12/25 05:04:40;;;;;;;0.60;0.60;;;;;;;8.00;100.00;98200.53;4136209;28;20212;-53
2023/12/25 05:06:42;;;;;;;0.73;0.73;;;;;;;8.01;100.00;98219.38;4138454;28;20209;-51
2023/12/25 05:08:44;;;;;;;4.25;1.00;;;;;;;8.03;100.00;98197.34;4135548;28;20230;-51
2023/12/25 05:10:46;;;;;;;0.75;0.75;;;;;;;8.01;100.00;98199.50;4143494;28;20300;-52
2023/12/25 05:12:47;;;;;;;0.50;0.50;;;;;;;8.02;100.00;98193.78;4139500;28;20206;-51
2023/12/25 05:14:50;;;;;;;0.80;0.80;;;;;;;7.96;100.00;98200.19;4137278;28;20206;-54
2023/12/25 05:16:52;;;;;;;0.73;0.73;;;;;;;8.00;100.00;98200.53;4137465;28;20216;-53
2023/12/25 05:18:54;;;;;;;0.50;0.50;;;;;;;7.92;100.00;98204.47;4134855;28;20236;-53
2023/12/25 05:20:56;;;;;;;0.85;0.85;;;;;;;7.96;100.00;98215.72;4136527;28;20812;-52
2023/12/25 05:22:58;;;;;;;0.80;0.80;;;;;;;7.96;100.00;98210.28;4137022;28;20598;-49
2023/12/25 05:25:00;;;;;;;0.68;0.68;;;;;;;7.97;100.00;98206.47;4137182;28;20251;-51
2023/12/25 05:27:01;;;;;;;0.75;0.75;;;;;;;7.96;100.00;98207.56;4136235;28;20206;-50
2023/12/25 05:29:04;;;;;;;0.75;0.75;;;;;;;7.92;100.00;98203.66;4135752;28;20252;-51
2023/12/25 05:31:06;;;;;;;0.75;0.75;;;;;;;7.97;100.00;98203.75;4134005;28;20209;-50
2023/12/25 05:33:07;;;;;;;0.63;0.63;;;;;;;7.96;100.00;98199.38;4136584;28;20212;-50
2023/12/25 05:35:09;;;;;;;0.80;0.80;;;;;;;7.97;100.00;98195.59;4136114;28;20293;-51
2023/12/25 05:37:11;;;;;;;0.77;0.77;;;;;;;7.94;100.00;98201.50;4137450;28;20218;-52
2023/12/25 05:39:13;;;;;;;0.70;0.70;;;;;;;7.95;100.00;98203.19;4138997;28;20268;-50
2023/12/25 05:41:15;;;;;;;0.70;0.70;;;;;;;7.93;100.00;98202.56;4138692;28;20209;-49
2023/12/25 05:43:17;;;;;;;0.80;0.80;;;;;;;7.94;100.00;98207.78;4140922;28;20233;-52
2023/12/25 05:45:21;;;;;;;0.70;0.70;;;;;;;7.96;100.00;98205.63;4142994;28;20247;-51
2023/12/25 05:47:23;;;;;;;1.27;1.25;;;;;;;7.93;100.00;98202.56;4133527;28;20214;-51
2023/12/25 05:49:25;;;;;;;0.70;0.70;;;;;;;7.92;100.00;98203.66;4142308;28;20781;-52
2023/12/25 05:51:27;;;;;;;0.88;0.88;;;;;;;7.91;100.00;98204.72;4135279;28;20216;-50
2023/12/25 05:53:29;;;;;;;0.80;0.80;;;;;;;7.92;100.00;98209.09;4137734;28;20217;-50
2023/12/25 05:55:31;;;;;;;0.80;0.80;;;;;;;7.92;100.00;98209.94;4137433;28;20280;-52
2023/12/25 05:57:33;;;;;;;0.93;0.93;;;;;;;7.94;100.00;98209.66;4136774;28;20206;-54
2023/12/25 05:59:37;;;;;;;0.80;0.80;;;;;;;7.95;100.00;98214.06;4145353;28;20626;-56
2023/12/25 06:01:39;;;;;;;0.70;0.70;;;;;;;7.96;100.00;98221.19;4143594;28;20217;-54
2023/12/25 06:03:40;;;;;;;3.92;0.70;;;;;;;7.93;100.00;98233.38;4139233;28;20233;-55
2023/12/25 06:05:42;;;;;;;0.50;0.50;;;;;;;7.93;100.00;98243.44;4145086;28;20356;-51
2023/12/25 06:07:44;;;;;;;0.60;0.60;;;;;;;7.95;100.00;98235.88;4131197;28;20221;-50
2023/12/25 06:09:46;;;;;;;0.93;0.93;;;;;;;7.95;100.00;98235.88;4139685;28;20205;-51
2023/12/25 06:11:47;;;;;;;0.50;0.50;;;;;;;7.95;100.00;98235.88;4123119;28;20587;-50
2023/12/25 06:13:49;;;;;;;0.57;0.57;;;;;;;7.94;100.00;98240.47;4141465;28;20214;-51
2023/12/25 06:15:51;;;;;;;0.70;0.70;;;;;;;7.91;100.00;98232.81;4141374;28;20288;-52
2023/12/25 06:17:53;;;;;;;0.70;0.70;;;;;;;7.94;100.00;98236.91;4123612;28;20249;-52
2023/12/25 06:19:55;;;;;;;0.70;0.70;;;;;;;7.94;100.00;98242.34;4140242;28;20221;-50
2023/12/25 06:22:00;;;;;;;0.82;0.82;;;;;;;7.93;100.00;98244.28;4140926;28;20651;-54
2023/12/25 06:24:02;;;;;;;0.50;0.50;;;;;;;7.91;100.00;98229.22;4141558;28;20268;-49
2023/12/25 06:26:04;;;;;;;0.70;0.70;;;;;;;7.92;100.00;98230.88;4135585;28;21145;-51
2023/12/25 06:28:05;;;;;;;0.60;0.60;;;;;;;7.93;100.00;98240.72;4130499;28;20300;-54
2023/12/25 06:30:08;;;;;;;1.02;0.85;;;;;;;7.89;100.00;98221.28;4147858;28;20212;-53
2023/12/25 06:32:10;;;;;;;0.70;0.70;;;;;;;7.91;100.00;98240.13;4136800;28;20644;-53
2023/12/25 06:34:11;;;;;;;0.80;0.80;;;;;;;7.91;100.00;98240.97;4129285;28;20206;-51
2023/12/25 06:36:13;;;;;;;0.80;0.80;;;;;;;7.92;100.00;98242.63;4137967;28;20264;-51
2023/12/25 06:38:15;;;;;;;0.70;0.70;;;;;;;7.90;100.00;98233.84;4138533;28;20268;-53
2023/12/25 06:40:17;;;;;;;0.50;0.50;;;;;;;7.90;100.00;98246.66;4138892;28;20217;-52
2023/12/25 06:42:18;;;;;;;0.80;0.80;;;;;;;7.90;100.00;98238.47;4136141;28;20216;-51
2023/12/25 06:44:20;;;;;;;0.77;0.77;;;;;;;7.90;100.00;98227.59;4139858;28;20238;-51
2023/12/25 06:46:22;;;;;;;0.60;0.60;;;;;;;7.92;100.00;98239.06;4142451;28;20810;-52
2023/12/25 06:48:24;;;;;;;0.80;0.80;;;;;;;7.88;100.00;98240.63;4145041;28;20365;-49
2023/12/25 06:50:26;;;;;;;0.70;0.70;;;;;;;7.89;100.00;98243.09;4136369;28;20206;-52
2023/12/25 06:52:28;;;;;;;0.80;0.80;;;;;;;7.89;100.00;98242.28;4137430;28;20707;-50
2023/12/25 06:54:29;;;;;;;0.70;0.70;;;;;;;7.92;100.00;98248.06;4136654;28;20228;-50
2023/12/25 06:56:31;;;;;;;0.75;0.75;;;;;;;7.90;100.00;98243.94;4137838;28;20221;-55
2023/12/25 06:58:33;;;;;;;0.70;0.70;;;;;;;7.89;100.00;98253.97;4139801;28;20234;-53
2023/12/25 07:00:35;;;;;;;0.60;0.60;;;;;;;7.88;100.00;98265.94;4137229;28;20210;-52
2023/12/25 07:02:37;;;;;;;0.82;0.80;;;;;;;7.91;100.00;98267.38;4139481;28;20218;-51
2023/12/25 07:04:39;;;;;;;0.60;0.60;;;;;;;7.90;100.00;98266.53;4136634;28;20249;-52
2023/12/25 07:06:40;;;;;;;0.70;0.70;;;;;;;7.89;100.00;98256.69;4145089;28;20597;-50
2023/12/25 07:08:43;;;;;;;0.80;0.80;;;;;;;7.91;100.00;98267.38;4129747;28;20229;-51
2023/12/25 07:10:46;;;;;;;4.30;0.70;;;;;;;7.91;100.00;98270.94;4142885;28;20237;-51
2023/12/25 07:12:48;;;;;;;0.60;0.60;;;;;;;7.90;100.00;98269.25;4137051;28;20292;-52
2023/12/25 07:14:53;;;;;;;0.65;0.65;;;;;;;7.89;100.00;98277.69;4139107;28;20221;-53
2023/12/25 07:16:55;;;;;;;0.93;0.93;;;;;;;7.88;100.00;98273.31;4137647;28;20202;-50
2023/12/25 07:18:57;;;;;;;0.65;0.65;;;;;;;7.92;100.00;98274.47;4139639;28;20330;-50
2023/12/25 07:20:59;;;;;;;0.75;0.75;;;;;;;7.93;100.00;98273.41;4143393;28;20259;-52
2023/12/25 07:23:00;;;;;;;0.75;0.75;;;;;;;7.93;100.00;98273.41;4135344;28;20233;-51
2023/12/25 07:25:06;;;;;;;0.70;0.70;;;;;;;7.86;100.00;98276.25;4136209;28;20206;-52
2023/12/25 07:27:08;;;;;;;0.70;0.68;;;;;;;7.91;100.00;98275.53;4136511;28;20313;-50
2023/12/25 07:29:10;;;;;;;0.60;0.60;;;;;;;7.88;100.00;98281.47;4123314;28;20258;-50
2023/12/25 07:31:11;;;;;;;0.77;0.77;;;;;;;7.86;100.00;98275.41;4142551;28;20213;-50
2023/12/25 07:33:13;;;;;;;0.82;0.82;;;;;;;7.93;100.00;98281.56;4121983;28;20289;-51
2023/12/25 07:35:15;;;;;;;0.60;0.60;;;;;;;7.93;100.00;98281.56;4139335;28;20584;-51
2023/12/25 07:37:17;;;;;;;0.50;0.50;;;;;;;7.89;100.00;98294.84;4137503;28;20205;-51
2023/12/25 07:39:19;;;;;;;0.80;0.80;;;;;;;7.91;100.00;98289.16;4137907;28;20225;-50
2023/12/25 07:41:22;;;;;;;0.73;0.73;;;;;;;7.90;100.00;98301.13;4135722;28;20214;-50
2023/12/25 07:43:26;;;;;;;0.75;0.75;;;;;;;7.89;100.00;98307.66;4141905;28;20264;-52
2023/12/25 07:45:28;;;;;;;0.90;0.90;;;;;;;7.90;100.00;98296.50;4138742;28;20301;-50
2023/12/25 07:47:29;;;;;;;0.60;0.60;;;;;;;7.90;100.00;98303.84;4136993;28;20694;-51
2023/12/25 07:49:31;;;;;;;0.60;0.60;;;;;;;7.93;100.00;98300.63;4137793;28;20237;-51
2023/12/25 07:51:33;;;;;;;0.50;0.50;;;;;;;7.93;100.00;98306.09;4127438;28;20304;-51
2023/12/25 07:53:35;;;;;;;0.63;0.63;;;;;;;7.93;100.00;98303.38;4136048;28;20269;-51
2023/12/25 07:55:38;;;;;;;0.75;0.75;;;;;;;7.92;100.00;98304.44;4140043;28;20212;-50
2023/12/25 07:57:40;;;;;;;0.70;0.70;;;;;;;7.90;100.00;98299.22;4139846;28;20205;-51
2023/12/25 07:59:42;;;;;;;0.98;0.98;;;;;;;7.92;100.00;98304.44;4143436;28;20305;-53
2023/12/25 08:01:43;;;;;;;0.80;0.80;;;;;;;7.89;100.00;98299.47;4135600;28;20883;-52
2023/12/25 08:03:45;;;;;;;0.60;0.60;;;;;;;7.89;100.00;98296.75;4141015;28;20241;-51
2023/12/25 08:05:47;;;;;;;0.65;0.65;;;;;;;7.91;100.00;98294.63;4139717;28;20244;-50
2023/12/25 08:07:49;;;;;;;0.60;0.60;;;;;;;7.87;100.00;98282.53;4136438;28;20678;-51
2023/12/25 08:09:51;;;;;;;0.60;0.60;;;;;;;7.88;100.00;98290.47;4136443;28;20273;-53
2023/12/25 08:11:53;;;;;;;0.85;0.85;;;;;;;7.89;100.00;98285.84;4139675;28;20216;-52
2023/12/25 08:13:54;;;;;;;0.70;0.70;;;;;;;7.90;100.00;98290.22;4134956;28;20563;-51
2023/12/25 08:15:57;;;;;;;0.63;0.63;;;;;;;7.90;100.00;98290.22;4139549;28;20548;-51
2023/12/25 08:17:59;;;;;;;0.80;0.80;;;;;;;7.91;100.00;98294.63;4120019;28;20325;-51
2023/12/25 08:20:02;;;;;;;0.80;0.80;;;;;;;7.90;100.00;98292.97;4139550;28;20235;-50
2023/12/25 08:22:04;;;;;;;0.70;0.70;;;;;;;7.91;100.00;98303.63;4136042;28;22459;-53
2023/12/25 08:24:06;;;;;;;0.70;0.70;;;;;;;7.94;100.00;98305.84;4135441;28;20228;-53
2023/12/25 08:26:07;;;;;;;0.68;0.68;;;;;;;7.96;100.00;98302.91;4136844;28;20245;-53
2023/12/25 08:28:09;;;;;;;0.73;0.73;;;;;;;7.93;100.00;98320.56;4137180;28;20222;-54
2023/12/25 08:30:11;;;;;;;0.70;0.70;;;;;;;7.99;100.00;98329.66;4137699;28;20688;-51
2023/12/25 08:32:13;;;;;;;0.50;0.50;;;;;;;7.99;100.00;98327.78;4121477;28;20308;-51
2023/12/25 08:34:15;;;;;;;0.70;0.70;;;;;;;7.98;100.00;98317.09;4138547;28;20300;-50
2023/12/25 08:36:17;;;;;;;0.60;0.60;;;;;;;7.99;100.00;98329.66;4142002;28;20220;-51
2023/12/25 08:38:19;;;;;;;0.70;0.70;;;;;;;7.99;100.00;98324.22;4138415;28;20217;-52
2023/12/25 08:40:20;;;;;;;0.75;0.75;;;;;;;7.95;100.00;98318.41;4136924;28;20210;-50
2023/12/25 08:42:22;;;;;;;0.50;0.50;;;;;;;7.99;100.00;98318.75;4134646;28;20210;-51
2023/12/25 08:44:24;;;;;;;0.70;0.70;;;;;;;7.98;100.00;98323.41;4136593;28;20794;-52
2023/12/25 08:46:26;;;;;;;0.50;0.50;;;;;;;8.00;100.00;98328.59;4143719;28;20738;-55
2023/12/25 08:48:28;;;;;;;0.57;0.57;;;;;;;8.03;100.00;98317.22;4139222;28;20240;-50
2023/12/25 08:50:30;;;;;;;0.77;0.77;;;;;;;8.05;100.00;98329.53;4137450;28;20261;-53
2023/12/25 08:52:32;;;;;;;0.75;0.75;;;;;;;8.03;100.00;98322.69;4144448;28;20700;-55
2023/12/25 08:54:34;;;;;;;0.77;0.77;;;;;;;8.00;100.00;98332.16;4143285;28;20288;-53
2023/12/25 08:56:36;;;;;;;0.68;0.68;;;;;;;8.01;100.00;98330.28;4139424;28;20217;-50
2023/12/25 08:58:39;;;;;;;0.50;0.50;;;;;;;8.07;100.00;98321.13;4139002;28;20238;-50
2023/12/25 09:00:40;;;;;;;0.80;0.80;;;;;;;8.09;100.00;98330.72;4144184;28;20205;-53
2023/12/25 09:02:42;;;;;;;0.80;0.80;;;;;;;8.10;100.00;98337.00;4135844;28;20244;-52
2023/12/25 09:04:44;;;;;;;0.50;0.50;;;;;;;8.13;100.00;98347.41;4119610;28;20314;-50
2023/12/25 09:06:46;;;;;;;0.60;0.60;;;;;;;8.10;100.00;98342.44;4132410;28;20220;-51
2023/12/25 09:08:48;;;;;;;0.70;0.70;;;;;;;8.08;100.00;98350.03;4137597;28;20241;-56
2023/12/25 09:10:50;;;;;;;0.63;0.63;;;;;;;8.11;100.00;98344.09;4138679;28;20245;-50
2023/12/25 09:12:52;;;;;;;1.27;1.05;;;;;;;8.10;100.00;98342.44;4143014;28;20296;-50
2023/12/25 09:14:54;;;;;;;0.85;0.85;;;;;;;8.11;100.00;98344.09;4138611;28;20264;-51
2023/12/25 09:16:56;;;;;;;0.70;0.70;;;;;;;8.12;100.00;98356.66;4142742;28;20702;-50
2023/12/25 09:18:58;;;;;;;0.70;0.70;;;;;;;8.10;100.00;98348.72;4139802;28;20236;-52
2023/12/25 09:21:00;;;;;;;0.50;0.50;;;;;;;8.16;100.00;98346.94;4137525;28;20225;-51
2023/12/25 09:23:03;;;;;;;0.60;0.60;;;;;;;8.21;100.00;98355.28;4138961;28;20245;-50
2023/12/25 09:25:05;;;;;;;0.80;0.80;;;;;;;8.18;100.00;98366.59;4143120;28;20229;-50
2023/12/25 09:27:07;;;;;;;0.82;0.82;;;;;;;8.16;100.00;98358.66;4142351;28;20687;-49
2023/12/25 09:29:11;;;;;;;0.65;0.65;;;;;;;8.09;100.00;98368.06;4136737;28;21189;-51
2023/12/25 09:31:13;;;;;;;0.50;0.50;;;;;;;8.14;100.00;98370.88;4144235;28;20216;-50
2023/12/25 09:33:15;;;;;;;0.68;0.68;;;;;;;8.12;100.00;98367.56;4140448;28;20687;-49
2023/12/25 09:35:22;;;;;;;0.70;0.70;;;;;;;8.10;100.00;98381.41;4139422;28;20212;-50